Time;durP1;ratioP1;P1;durP2;ratioP2;P2;SDS_P1;SDS_P2;PMS_P1;PMS_P2;Temp;Humidity;BMP_temperature;BMP_pressure;BME280_temperature;BME280_humidity;BME280_pressure;Samples;Min_cycle;Max_cycle;Signal;HPM_P1;HPM_P2
2023/03/08 00:01:21;;;;;;;8.70;6.83;;;;;;;7.02;53.20;97359.22;5100920;28;38724;-82
2023/03/08 00:03:52;;;;;;;9.50;6.57;;;;;;;7.07;52.88;97365.81;5098270;28;42035;-78
2023/03/08 00:06:19;;;;;;;9.40;6.87;;;;;;;7.21;53.28;97384.09;5080539;28;41976;-82
2023/03/08 00:08:48;;;;;;;9.67;6.70;;;;;;;7.17;53.38;97394.97;5095128;28;42668;-83
2023/03/08 00:11:16;;;;;;;10.53;6.67;;;;;;;7.21;52.85;97393.78;5092712;28;40182;-84
2023/03/08 00:13:46;;;;;;;9.83;7.10;;;;;;;7.22;52.67;97401.56;5092222;28;41543;-82
2023/03/08 00:16:14;;;;;;;9.33;7.03;;;;;;;7.14;52.78;97403.06;5092415;28;41659;-88
2023/03/08 00:18:42;;;;;;;11.73;6.97;;;;;;;7.19;52.38;97390.41;5091923;28;42138;-82
2023/03/08 00:21:12;;;;;;;8.43;6.17;;;;;;;7.10;52.64;97375.28;5091725;28;39831;-82
2023/03/08 00:23:40;;;;;;;8.63;6.53;;;;;;;7.11;52.22;97367.28;5092795;28;41797;-81
2023/03/08 00:26:10;;;;;;;9.33;6.70;;;;;;;7.27;52.47;97401.25;5092038;28;42988;-83
2023/03/08 00:28:38;;;;;;;9.23;6.87;;;;;;;7.28;52.21;97395.03;5091280;28;42231;-81
2023/03/08 00:31:09;;;;;;;8.07;5.67;;;;;;;7.28;52.50;97400.28;5092451;28;40991;-85
2023/03/08 00:33:37;;;;;;;7.70;5.73;;;;;;;7.25;52.33;97399.66;5089519;28;42682;-85
2023/03/08 00:36:09;;;;;;;8.93;6.47;;;;;;;7.28;51.77;97405.56;5092442;28;43073;-88
2023/03/08 00:38:38;;;;;;;10.93;6.60;;;;;;;7.09;51.65;97379.72;5089439;28;42523;-83
2023/03/08 00:41:07;;;;;;;9.63;7.07;;;;;;;7.27;51.94;97410.94;5092066;28;39793;-85
2023/03/08 00:43:34;;;;;;;8.23;6.50;;;;;;;7.27;51.73;97409.13;5091710;28;42022;-81
2023/03/08 00:46:04;;;;;;;9.53;7.00;;;;;;;7.14;51.92;97393.38;5092198;28;42903;-80
2023/03/08 00:48:34;;;;;;;8.27;6.53;;;;;;;7.28;51.67;97405.56;5091280;28;42609;-84
2023/03/08 00:51:02;;;;;;;9.57;6.40;;;;;;;7.26;51.62;97412.72;5092697;28;40142;-82
2023/03/08 00:53:30;;;;;;;9.50;6.77;;;;;;;7.28;51.75;97413.47;5091490;28;41938;-82
2023/03/08 00:55:59;;;;;;;8.70;6.50;;;;;;;7.18;51.54;97394.81;5091844;28;43672;-87
2023/03/08 00:58:31;;;;;;;9.80;7.00;;;;;;;7.29;51.21;97407.25;5089305;28;43160;-83
2023/03/08 01:00:59;;;;;;;9.40;6.40;;;;;;;7.23;51.16;97402.41;5091422;28;40318;-84
2023/03/08 01:03:27;;;;;;;10.00;6.63;;;;;;;7.22;51.47;97403.34;5093797;28;41837;-87
2023/03/08 01:05:59;;;;;;;8.17;6.80;;;;;;;7.25;51.11;97410.19;5095228;28;43832;-84
2023/03/08 01:08:27;;;;;;;9.23;6.27;;;;;;;7.26;51.37;97410.09;5092374;28;43124;-88
2023/03/08 01:10:56;;;;;;;8.37;6.50;;;;;;;7.26;51.10;97418.00;5095250;28;40187;-85
2023/03/08 01:13:26;;;;;;;8.87;6.57;;;;;;;7.28;51.25;97409.97;5077600;28;40844;-82
2023/03/08 01:15:54;;;;;;;9.07;6.67;;;;;;;7.29;51.02;97409.88;5095917;28;43938;-85
2023/03/08 01:18:22;;;;;;;8.77;6.40;;;;;;;7.22;50.94;97396.31;5094475;28;41480;-82
2023/03/08 01:20:57;;;;;;;9.27;6.53;;;;;;;7.31;50.83;97394.78;5094092;28;39961;-82
2023/03/08 01:23:26;;;;;;;12.10;6.27;;;;;;;7.22;50.92;97391.03;5092131;28;41705;-90
2023/03/08 01:26:00;;;;;;;9.43;6.57;;;;;;;7.31;51.13;97405.31;5094794;28;42875;-85
2023/03/08 01:28:28;;;;;;;8.27;6.43;;;;;;;7.18;50.70;97380.81;5094215;28;42650;-84
2023/03/08 01:31:01;;;;;;;10.17;6.33;;;;;;;7.31;50.88;97393.94;5077403;28;38997;-85
2023/03/08 01:33:29;;;;;;;7.67;5.90;;;;;;;7.18;50.93;97379.03;5092976;28;42216;-85
2023/03/08 01:35:58;;;;;;;9.17;6.70;;;;;;;7.30;51.20;97393.09;5094133;28;42775;-83
2023/03/08 01:38:25;;;;;;;7.97;6.47;;;;;;;7.21;50.85;97380.59;5094153;28;42304;-82
2023/03/08 01:40:57;;;;;;;9.87;6.30;;;;;;;7.12;50.77;97370.75;5094430;28;39148;-83
2023/03/08 01:43:26;;;;;;;9.07;6.23;;;;;;;7.19;50.73;97385.97;5077891;28;40666;-81
2023/03/08 01:46:20;;;;;;;7.40;5.83;;;;;;;7.19;50.71;97370.19;5078542;28;41605;-81
2023/03/08 01:48:55;;;;;;;9.67;6.70;;;;;;;6.80;50.87;97310.75;5072247;28;40800;-80
2023/03/08 01:51:31;;;;;;;8.03;6.10;;;;;;;7.14;51.16;97371.50;5082700;28;38992;-80
2023/03/08 01:54:02;;;;;;;7.57;5.80;;;;;;;7.14;50.97;97368.84;5093244;28;41784;-85
2023/03/08 01:56:30;;;;;;;7.30;5.77;;;;;;;6.81;51.23;97316.84;5095183;28;42383;-87
2023/03/08 01:58:59;;;;;;;8.67;5.73;;;;;;;7.22;51.04;97377.03;5094205;28;42332;-88
2023/03/08 02:01:28;;;;;;;10.50;6.80;;;;;;;7.22;50.80;97379.66;5095566;28;39994;-86
2023/03/08 02:03:58;;;;;;;7.93;5.73;;;;;;;7.13;50.96;97360.13;5077477;28;40722;-83
2023/03/08 02:06:29;;;;;;;8.17;6.27;;;;;;;7.24;51.02;97377.75;5076747;28;41659;-79
2023/03/08 02:08:57;;;;;;;9.93;6.87;;;;;;;7.20;51.09;97371.88;5076894;28;41571;-82
2023/03/08 02:11:25;;;;;;;10.40;6.73;;;;;;;7.08;51.18;97356.13;5077250;28;39992;-84
2023/03/08 02:13:57;;;;;;;9.07;6.67;;;;;;;7.05;51.01;97362.44;5091904;28;41914;-78
2023/03/08 02:16:25;;;;;;;9.23;5.90;;;;;;;6.99;51.40;97364.69;5077233;28;41594;-82
2023/03/08 02:18:55;;;;;;;8.23;6.27;;;;;;;6.89;51.24;97361.03;5093638;28;42131;-85
2023/03/08 02:21:24;;;;;;;8.87;5.90;;;;;;;6.85;51.39;97347.25;5090675;28;40919;-87
2023/03/08 02:23:55;;;;;;;7.77;5.97;;;;;;;6.90;51.48;97360.94;5093774;28;41870;-83
2023/03/08 02:26:23;;;;;;;7.67;5.73;;;;;;;6.89;51.31;97359.25;5093621;28;43209;-88
2023/03/08 02:28:51;;;;;;;9.77;6.47;;;;;;;6.89;51.62;97367.16;5093684;28;41131;-89
2023/03/08 02:31:22;;;;;;;7.53;5.60;;;;;;;6.82;51.29;97350.09;5077007;28;39997;-82
2023/03/08 02:33:50;;;;;;;8.73;6.30;;;;;;;6.91;51.48;97361.78;5093332;28;42643;-87
2023/03/08 02:36:17;;;;;;;7.43;6.10;;;;;;;6.87;51.70;97353.25;5076192;28;41951;-82
2023/03/08 02:38:45;;;;;;;7.90;6.23;;;;;;;6.99;51.40;97367.31;5093523;28;42104;-85
2023/03/08 02:41:14;;;;;;;9.70;6.80;;;;;;;6.94;51.10;97358.91;5093359;28;40754;-85
2023/03/08 02:43:44;;;;;;;10.80;6.67;;;;;;;6.94;51.13;97361.53;5076563;28;40502;-88
2023/03/08 02:46:12;;;;;;;10.27;6.37;;;;;;;6.96;51.51;97349.13;5076284;28;43163;-85
2023/03/08 02:48:40;;;;;;;8.10;5.97;;;;;;;6.99;51.01;97352.38;5076298;28;41554;-84
2023/03/08 02:51:07;;;;;;;8.50;6.47;;;;;;;7.02;51.03;97346.06;5093213;28;39202;-79
2023/03/08 02:53:36;;;;;;;8.57;6.33;;;;;;;6.93;51.06;97333.53;5076076;28;40830;-82
2023/03/08 02:56:04;;;;;;;7.10;6.33;;;;;;;6.93;50.79;97328.28;5076248;28;43704;-85
2023/03/08 02:58:35;;;;;;;9.97;7.73;;;;;;;6.99;51.02;97341.84;5076063;28;40942;-81
2023/03/08 03:01:04;;;;;;;8.63;6.63;;;;;;;7.05;50.85;97345.81;5090211;28;40598;-83
2023/03/08 03:03:32;;;;;;;10.93;6.37;;;;;;;7.04;50.79;97339.72;5092704;28;41826;-85
2023/03/08 03:05:59;;;;;;;7.87;6.23;;;;;;;7.05;50.72;97335.28;5092835;28;43691;-81
2023/03/08 03:08:32;;;;;;;10.03;6.20;;;;;;;7.03;50.91;97342.47;5075815;28;41009;-86
2023/03/08 03:10:59;;;;;;;9.37;7.17;;;;;;;7.02;50.61;97341.63;5075903;28;39146;-84
2023/03/08 03:13:27;;;;;;;9.87;6.53;;;;;;;7.04;50.61;97346.78;5075896;28;40631;-85
2023/03/08 03:15:57;;;;;;;8.80;6.53;;;;;;;7.04;50.77;97342.38;5092736;28;43776;-80
2023/03/08 03:18:25;;;;;;;8.33;6.37;;;;;;;7.04;50.97;97336.25;5092487;28;42335;-85
2023/03/08 03:20:52;;;;;;;9.63;7.23;;;;;;;7.05;50.80;97335.28;5092343;28;40936;-82
2023/03/08 03:23:20;;;;;;;9.93;6.73;;;;;;;6.98;50.83;97331.44;5092894;28;42833;-80
2023/03/08 03:25:53;;;;;;;9.60;6.80;;;;;;;6.91;50.57;97317.88;5088636;28;43768;-89
2023/03/08 03:28:22;;;;;;;11.03;7.10;;;;;;;6.93;50.98;97331.75;5075333;28;42216;-81
2023/03/08 03:30:50;;;;;;;8.67;6.43;;;;;;;6.99;50.46;97335.75;5075593;28;38987;-85
2023/03/08 03:33:20;;;;;;;9.70;6.33;;;;;;;7.01;51.00;97331.22;5092359;28;41506;-84
2023/03/08 03:35:48;;;;;;;7.77;6.77;;;;;;;6.99;50.71;97325.22;5074935;28;41410;-81
2023/03/08 03:38:16;;;;;;;7.57;6.40;;;;;;;6.92;50.78;97318.72;5092168;28;43463;-80
2023/03/08 03:40:46;;;;;;;8.13;6.60;;;;;;;6.94;50.83;97330.81;5075658;28;39943;-85
2023/03/08 03:43:14;;;;;;;11.33;7.97;;;;;;;6.92;50.82;97329.25;5075373;28;40717;-82
2023/03/08 03:45:41;;;;;;;11.60;8.10;;;;;;;6.84;50.81;97321.91;5092238;28;42829;-80
2023/03/08 03:48:10;;;;;;;11.10;7.10;;;;;;;6.85;51.07;97329.69;5092091;28;42216;-89
2023/03/08 03:50:40;;;;;;;9.63;6.90;;;;;;;6.76;51.13;97314.56;5092191;28;39667;-86
2023/03/08 03:53:12;;;;;;;10.03;6.83;;;;;;;6.84;50.61;97322.72;5075125;28;40723;-83
2023/03/08 03:55:41;;;;;;;11.03;6.90;;;;;;;6.83;51.12;97330.72;5074912;28;42096;-84
2023/03/08 03:58:09;;;;;;;10.87;7.40;;;;;;;6.82;50.95;97335.16;5074723;28;41452;-82
2023/03/08 04:00:37;;;;;;;10.47;7.13;;;;;;;6.73;50.96;97330.56;5075577;28;38975;-84
2023/03/08 04:03:23;;;;;;;12.13;6.77;;;;;;;6.72;50.93;97322.78;5075046;28;41853;-83
2023/03/08 04:05:54;;;;;;;9.93;6.77;;;;;;;6.74;50.96;97334.88;5074626;28;43407;-86
2023/03/08 04:08:22;;;;;;;11.10;7.37;;;;;;;6.72;50.84;97335.94;5074768;28;41334;-84
2023/03/08 04:10:50;;;;;;;10.20;6.53;;;;;;;6.67;51.07;97325.75;5074604;28;39049;-80
2023/03/08 04:13:18;;;;;;;10.63;6.67;;;;;;;6.57;50.78;97313.34;5074920;28;40243;-86
2023/03/08 04:15:46;;;;;;;14.00;7.10;;;;;;;6.71;50.83;97324.56;5075146;28;41587;-86
2023/03/08 04:18:14;;;;;;;11.20;7.33;;;;;;;6.71;50.66;97321.94;5074731;28;42359;-82
2023/03/08 04:20:45;;;;;;;13.23;7.17;;;;;;;6.58;50.96;97300.09;5091271;28;40105;-83
2023/03/08 04:23:14;;;;;;;9.63;7.03;;;;;;;6.65;50.68;97313.66;5074630;28;40420;-83
2023/03/08 04:25:46;;;;;;;11.77;7.47;;;;;;;6.62;50.75;97305.97;5075205;28;43203;-84
2023/03/08 04:28:16;;;;;;;10.17;7.27;;;;;;;6.61;50.86;97297.25;5075163;28;42347;-83
2023/03/08 04:30:44;;;;;;;11.63;7.20;;;;;;;6.58;50.91;97291.34;5076118;28;39834;-85
2023/03/08 04:33:12;;;;;;;11.03;7.30;;;;;;;6.57;50.63;97298.41;5080521;28;40227;-78
2023/03/08 04:35:47;;;;;;;9.33;6.90;;;;;;;6.54;50.69;97298.63;5085513;28;42191;-82
2023/03/08 04:38:17;;;;;;;12.17;7.60;;;;;;;6.51;50.57;97301.47;5078926;28;41119;-85
2023/03/08 04:41:10;;;;;;;9.83;7.00;;;;;;;6.41;50.97;97295.19;5078860;28;39196;-84
2023/03/08 04:43:58;;;;;;;9.70;7.10;;;;;;;6.28;50.90;97297.00;5095595;28;41871;-85
2023/03/08 04:46:48;;;;;;;11.30;7.57;;;;;;;6.08;51.40;97277.34;5078077;28;41674;-87
2023/03/08 04:49:23;;;;;;;11.83;7.73;;;;;;;6.07;51.30;97279.13;5078355;28;41463;-87
2023/03/08 04:51:56;;;;;;;11.93;7.13;;;;;;;5.93;51.71;97258.25;5078132;28;39119;-86
2023/03/08 04:54:26;;;;;;;11.37;7.60;;;;;;;5.93;51.60;97266.16;5078313;28;40522;-82
2023/03/08 04:57:00;;;;;;;10.20;6.90;;;;;;;5.97;52.00;97267.59;5091633;28;42805;-82
2023/03/08 04:59:28;;;;;;;10.50;7.00;;;;;;;5.95;52.10;97258.13;5094951;28;43187;-83
2023/03/08 05:01:59;;;;;;;9.37;6.90;;;;;;;5.94;51.74;97265.16;5092692;28;39805;-87
2023/03/08 05:04:28;;;;;;;11.17;7.87;;;;;;;5.94;51.70;97267.78;5078564;28;41673;-84
2023/03/08 05:06:56;;;;;;;10.00;7.50;;;;;;;5.94;52.02;97267.78;5078254;28;42439;-87
2023/03/08 05:09:28;;;;;;;11.17;7.87;;;;;;;5.92;51.64;97269.72;5095254;28;42641;-85
2023/03/08 05:11:57;;;;;;;9.23;7.20;;;;;;;5.87;51.63;97253.38;5096374;28;39306;-86
2023/03/08 05:14:26;;;;;;;9.27;6.53;;;;;;;5.88;51.62;97255.09;5094849;28;41109;-85
2023/03/08 05:16:55;;;;;;;10.73;6.90;;;;;;;5.93;51.51;97260.91;5094718;28;42704;-89
2023/03/08 05:19:23;;;;;;;9.97;7.37;;;;;;;5.99;51.67;97265.69;5077311;28;40823;-82
2023/03/08 05:21:53;;;;;;;10.10;6.80;;;;;;;6.00;51.68;97262.13;5078050;28;39184;-85
2023/03/08 05:24:21;;;;;;;10.43;7.20;;;;;;;5.89;51.58;97246.28;5094691;28;42271;-89
2023/03/08 05:26:51;;;;;;;10.67;7.70;;;;;;;5.91;51.44;97244.38;5077067;28;41683;-82
2023/03/08 05:29:19;;;;;;;10.70;7.10;;;;;;;6.03;51.65;97255.81;5077462;28;43581;-86
2023/03/08 05:31:49;;;;;;;10.70;7.50;;;;;;;5.89;51.59;97238.41;5077569;28;38916;-78
2023/03/08 05:34:18;;;;;;;10.13;7.37;;;;;;;6.02;51.63;97260.25;5093378;28;41668;-81
2023/03/08 05:36:48;;;;;;;10.70;7.93;;;;;;;5.87;51.53;97237.63;5094060;28;44540;-83
2023/03/08 05:39:16;;;;;;;8.60;6.40;;;;;;;6.05;51.56;97254.78;5077517;28;41325;-84
2023/03/08 05:41:56;;;;;;;10.40;7.27;;;;;;;6.05;51.56;97259.19;5077430;28;39402;-81
2023/03/08 05:44:29;;;;;;;9.80;7.30;;;;;;;6.02;51.85;97252.38;5093587;28;42664;-84
2023/03/08 05:47:00;;;;;;;10.03;7.53;;;;;;;6.00;51.55;97258.66;5093789;28;44222;-79
2023/03/08 05:49:28;;;;;;;11.47;8.00;;;;;;;5.99;51.41;97260.44;5092783;28;43155;-86
2023/03/08 05:51:56;;;;;;;12.00;7.90;;;;;;;5.99;51.45;97260.44;5093965;28;39990;-85
2023/03/08 05:54:26;;;;;;;10.47;7.50;;;;;;;5.85;51.30;97233.41;5076942;28;40939;-83
2023/03/08 05:56:59;;;;;;;10.77;8.10;;;;;;;5.89;51.65;97243.66;5090812;28;43211;-82
2023/03/08 05:59:26;;;;;;;10.93;7.57;;;;;;;6.01;51.48;97258.56;5094517;28;43585;-82
2023/03/08 06:01:57;;;;;;;10.10;7.43;;;;;;;5.99;51.25;97260.44;5094391;28;39911;-86
2023/03/08 06:04:37;;;;;;;11.60;7.67;;;;;;;5.93;51.22;97253.00;5077226;28;40991;-85
2023/03/08 06:07:05;;;;;;;10.60;7.50;;;;;;;6.06;51.14;97266.09;5093311;28;42784;-82
2023/03/08 06:09:37;;;;;;;14.20;8.37;;;;;;;6.08;51.25;97265.06;5076406;28;42031;-86
2023/03/08 06:12:08;;;;;;;10.27;7.10;;;;;;;6.12;51.08;97271.78;5077118;28;40230;-82
2023/03/08 06:14:36;;;;;;;9.63;7.33;;;;;;;6.18;50.96;97280.19;5093796;28;41568;-84
2023/03/08 06:17:05;;;;;;;10.47;7.37;;;;;;;6.04;51.08;97253.09;5076578;28;41949;-82
2023/03/08 06:19:35;;;;;;;11.23;7.67;;;;;;;6.20;50.85;97273.88;5076082;28;40727;-82
2023/03/08 06:22:03;;;;;;;11.13;7.70;;;;;;;6.24;51.20;97261.34;5093919;28;40934;-85
2023/03/08 06:24:31;;;;;;;12.93;7.83;;;;;;;6.13;51.19;97241.94;5076604;28;40550;-87
2023/03/08 06:27:01;;;;;;;10.90;7.40;;;;;;;6.28;51.54;97262.84;5094045;28;43620;-86
2023/03/08 06:29:30;;;;;;;9.87;6.97;;;;;;;6.25;51.72;97257.78;5076119;28;41435;-84
2023/03/08 06:31:58;;;;;;;10.20;7.90;;;;;;;6.20;51.96;97265.97;5076171;28;39762;-84
2023/03/08 06:34:27;;;;;;;14.50;8.63;;;;;;;6.05;53.31;97233.75;5075996;28;40548;-82
2023/03/08 06:36:58;;;;;;;10.93;7.80;;;;;;;5.98;54.00;97247.41;5075893;28;42865;-82
2023/03/08 06:39:29;;;;;;;11.53;7.23;;;;;;;5.96;55.22;97238.78;5076231;28;41404;-82
2023/03/08 06:42:00;;;;;;;10.80;6.97;;;;;;;5.96;55.29;97238.78;5058420;28;40155;-79
2023/03/08 06:44:28;;;;;;;11.13;7.67;;;;;;;5.90;55.54;97224.31;5074119;28;40736;-80
2023/03/08 06:46:57;;;;;;;10.77;7.60;;;;;;;5.84;56.59;97227.31;5071502;28;41651;-82
2023/03/08 06:49:25;;;;;;;12.07;7.70;;;;;;;5.96;56.05;97234.38;5071587;28;41044;-80
2023/03/08 06:51:54;;;;;;;11.37;7.43;;;;;;;6.01;56.58;97231.44;5087571;28;44773;-77
2023/03/08 06:54:23;;;;;;;10.57;7.67;;;;;;;5.99;57.24;97218.41;5088362;28;41807;-87
2023/03/08 06:56:51;;;;;;;12.03;8.10;;;;;;;5.98;57.21;97219.34;5086732;28;45210;-80
2023/03/08 06:59:18;;;;;;;9.17;6.83;;;;;;;6.01;57.45;97221.78;5087180;28;42183;-84
2023/03/08 07:01:46;;;;;;;9.17;7.33;;;;;;;5.97;57.23;97209.78;5088948;28;38906;-76
2023/03/08 07:04:16;;;;;;;10.60;7.43;;;;;;;6.02;57.50;97212.94;5083128;28;40869;-78
2023/03/08 07:06:44;;;;;;;9.90;6.93;;;;;;;6.01;57.43;97215.69;5100416;28;43257;-77
2023/03/08 07:09:13;;;;;;;13.97;8.30;;;;;;;5.92;58.59;97213.72;5101662;28;42451;-79
2023/03/08 07:11:41;;;;;;;12.70;7.70;;;;;;;5.79;58.73;97205.81;5102696;28;39843;-78
2023/03/08 07:14:08;;;;;;;10.77;7.73;;;;;;;5.63;59.10;97197.31;5095525;28;41902;-80
2023/03/08 07:16:36;;;;;;;10.03;6.83;;;;;;;5.71;59.62;97208.09;5088489;28;43584;-78
2023/03/08 07:19:04;;;;;;;11.43;7.73;;;;;;;5.71;59.80;97205.47;5097121;28;42240;-78
2023/03/08 07:21:33;;;;;;;10.63;7.73;;;;;;;5.72;59.92;97199.28;5091891;28;40173;-79
2023/03/08 07:24:01;;;;;;;12.83;7.07;;;;;;;5.65;60.06;97188.38;5071218;28;41899;-80
2023/03/08 07:26:29;;;;;;;9.87;7.50;;;;;;;5.67;60.03;97196.16;5085687;28;43832;-87
2023/03/08 07:28:57;;;;;;;9.60;7.30;;;;;;;5.77;60.18;97202.44;5088809;28;42183;-85
2023/03/08 07:31:25;;;;;;;10.73;7.67;;;;;;;5.83;60.38;97195.91;5088455;28;39411;-79
2023/03/08 07:33:53;;;;;;;10.90;7.93;;;;;;;5.76;60.42;97179.75;5071627;28;41437;-86
2023/03/08 07:36:21;;;;;;;9.13;6.93;;;;;;;5.85;60.03;97189.59;5086922;28;43651;-84
2023/03/08 07:38:50;;;;;;;10.77;7.47;;;;;;;5.88;60.03;97189.44;5087722;28;42396;-80
2023/03/08 07:41:18;;;;;;;12.03;7.90;;;;;;;6.03;60.63;97198.88;5087057;28;40305;-80
2023/03/08 07:43:46;;;;;;;12.57;8.57;;;;;;;5.94;60.84;97167.13;5086588;28;40341;-84
2023/03/08 07:46:17;;;;;;;12.03;8.50;;;;;;;5.86;60.89;97158.94;5083065;28;42733;-82
2023/03/08 07:48:45;;;;;;;13.03;8.60;;;;;;;5.76;61.80;97151.69;5087115;28;41581;-84
2023/03/08 07:51:13;;;;;;;10.63;7.80;;;;;;;5.78;61.86;97167.34;5069314;28;39504;-79
2023/03/08 07:53:41;;;;;;;10.70;7.87;;;;;;;5.78;62.33;97172.59;5087665;28;41502;-81
2023/03/08 07:56:10;;;;;;;12.13;7.67;;;;;;;5.74;62.24;97150.97;5067378;28;42786;-85
2023/03/08 07:58:38;;;;;;;10.83;7.07;;;;;;;5.75;62.86;97146.56;5087545;28;42218;-81
2023/03/08 08:01:09;;;;;;;12.43;7.93;;;;;;;5.49;63.55;97102.91;5068449;28;38928;-79
2023/03/08 08:03:37;;;;;;;9.77;7.43;;;;;;;5.45;63.92;97099.66;5087662;28;40764;-80
2023/03/08 08:06:06;;;;;;;11.97;7.70;;;;;;;5.63;64.43;97131.66;5085308;28;43775;-83
2023/03/08 08:08:34;;;;;;;10.40;7.90;;;;;;;5.46;64.81;97098.69;5087399;28;43277;-84
2023/03/08 08:11:09;;;;;;;13.87;8.43;;;;;;;5.61;64.96;97128.28;5069359;28;38939;-80
2023/03/08 08:13:38;;;;;;;10.77;8.20;;;;;;;5.61;65.89;97120.41;5084854;28;41631;-81
2023/03/08 08:16:07;;;;;;;12.83;7.50;;;;;;;5.19;66.95;97049.00;5085160;28;42564;-86
2023/03/08 08:18:36;;;;;;;10.27;7.73;;;;;;;5.41;66.62;97085.91;5085477;28;42464;-81
2023/03/08 08:21:05;;;;;;;11.60;7.37;;;;;;;5.49;66.38;97087.16;5067666;28;39060;-86
2023/03/08 08:23:35;;;;;;;12.43;8.40;;;;;;;5.51;67.41;97095.75;5083448;28;20214;-83
2023/03/08 08:26:06;;;;;;;11.83;8.07;;;;;;;5.50;67.30;97088.84;5090294;28;42002;-82
2023/03/08 08:28:34;;;;;;;11.07;8.27;;;;;;;5.47;67.38;97089.03;5088485;28;42165;-85
2023/03/08 08:31:07;;;;;;;12.57;8.07;;;;;;;5.30;69.14;97066.63;5091468;28;39229;-80
2023/03/08 08:33:35;;;;;;;11.33;8.00;;;;;;;5.30;69.77;97071.88;5090665;28;40619;-81
2023/03/08 08:36:05;;;;;;;14.23;8.63;;;;;;;5.31;69.93;97053.41;5091923;28;43198;-80
2023/03/08 08:38:33;;;;;;;11.50;8.23;;;;;;;5.26;70.47;97052.03;5073093;28;41135;-78
2023/03/08 08:41:02;;;;;;;12.43;8.43;;;;;;;5.18;70.69;97054.34;5074060;28;39266;-79
2023/03/08 08:43:30;;;;;;;9.27;7.60;;;;;;;5.11;70.92;97040.81;5090112;28;40618;-80
2023/03/08 08:45:59;;;;;;;12.90;8.00;;;;;;;5.02;71.41;97026.56;5074273;28;41760;-85
2023/03/08 08:48:31;;;;;;;13.50;8.93;;;;;;;5.01;72.44;97022.25;5073874;28;42305;-85
2023/03/08 08:51:00;;;;;;;12.93;8.37;;;;;;;5.03;72.89;97022.16;5107889;28;39301;-79
2023/03/08 08:53:28;;;;;;;12.87;8.57;;;;;;;4.96;72.68;97015.63;5090184;28;42248;-80
2023/03/08 08:55:56;;;;;;;15.03;8.70;;;;;;;4.94;72.37;97023.63;5090892;28;42473;-79
2023/03/08 08:58:24;;;;;;;15.63;9.17;;;;;;;4.87;73.09;97013.66;5091118;28;42038;-80
2023/03/08 09:00:52;;;;;;;13.23;8.93;;;;;;;4.82;72.62;97019.22;5090771;28;38848;-82
2023/03/08 09:03:19;;;;;;;13.30;8.30;;;;;;;4.80;72.96;97015.03;5073603;28;40812;-83
2023/03/08 09:05:49;;;;;;;10.97;8.50;;;;;;;4.85;73.42;97002.44;5090533;28;42394;-80
2023/03/08 09:08:16;;;;;;;13.80;8.83;;;;;;;4.79;72.87;96987.13;5073561;28;40908;-83
2023/03/08 09:10:44;;;;;;;14.17;8.63;;;;;;;4.82;73.37;96969.38;5073424;28;39117;-85
2023/03/08 09:13:13;;;;;;;13.67;7.90;;;;;;;4.94;73.48;96976.44;5073693;28;40765;-82
2023/03/08 09:15:40;;;;;;;16.40;9.37;;;;;;;4.98;73.53;96987.53;5090767;28;43072;-81
2023/03/08 09:18:08;;;;;;;13.90;8.40;;;;;;;4.86;74.78;96967.41;5088030;28;41244;-81
2023/03/08 09:20:36;;;;;;;13.63;9.20;;;;;;;4.86;75.06;96968.22;5089507;28;39306;-80
2023/03/08 09:23:07;;;;;;;14.27;8.40;;;;;;;4.86;74.86;96964.78;5123698;27;41662;-79
2023/03/08 09:25:34;;;;;;;12.43;8.03;;;;;;;4.86;75.53;96952.50;5093649;28;41606;-79
2023/03/08 09:28:02;;;;;;;11.87;8.60;;;;;;;4.86;75.45;96946.41;5093727;28;42891;-80
2023/03/08 09:30:31;;;;;;;12.73;9.30;;;;;;;4.79;75.61;96939.94;5093691;28;40496;-79
2023/03/08 09:32:59;;;;;;;13.20;8.03;;;;;;;4.61;76.44;96923.69;5127462;27;42314;-81
2023/03/08 09:35:27;;;;;;;10.43;7.83;;;;;;;4.66;76.72;96925.06;5094941;28;43038;-82
2023/03/08 09:37:54;;;;;;;11.67;8.17;;;;;;;4.69;76.37;96924.84;5076794;28;42208;-82
2023/03/08 09:40:26;;;;;;;13.60;9.43;;;;;;;4.63;75.79;96906.91;5077420;28;38915;-80
2023/03/08 09:43:04;;;;;;;11.73;8.40;;;;;;;4.42;75.72;96874.34;5093407;28;40981;-80
2023/03/08 09:45:33;;;;;;;12.17;8.80;;;;;;;4.69;75.73;96934.50;5094054;28;41930;-81
2023/03/08 09:48:09;;;;;;;12.10;8.37;;;;;;;4.63;75.74;96927.88;5093475;28;43308;-83
2023/03/08 09:50:46;;;;;;;10.50;7.60;;;;;;;4.55;76.69;96927.59;5065960;28;40456;-78
2023/03/08 09:53:23;;;;;;;11.70;7.47;;;;;;;4.46;77.15;96922.97;5070640;28;41133;-76
2023/03/08 09:55:56;;;;;;;10.83;7.80;;;;;;;4.34;78.09;96914.16;5090161;28;43794;-81
2023/03/08 09:58:33;;;;;;;11.40;7.67;;;;;;;4.34;78.76;96913.31;5090685;28;42064;-81
2023/03/08 10:01:13;;;;;;;12.03;7.37;;;;;;;4.40;78.49;96915.53;5093567;28;40147;-77
2023/03/08 10:03:57;;;;;;;10.07;6.90;;;;;;;4.48;78.56;96910.59;5061794;28;41735;-79
2023/03/08 10:06:33;;;;;;;9.37;7.30;;;;;;;4.62;77.49;96910.47;5066384;28;41730;-80
2023/03/08 10:09:06;;;;;;;11.20;7.20;;;;;;;4.68;77.75;96896.13;5081524;28;42326;-80
2023/03/08 10:11:40;;;;;;;11.13;7.50;;;;;;;4.89;77.24;96925.22;5073589;28;38563;-81
2023/03/08 10:14:28;;;;;;;9.93;7.10;;;;;;;4.87;77.25;96906.97;5088151;28;41786;-78
2023/03/08 10:16:59;;;;;;;9.40;7.13;;;;;;;5.03;77.08;96907.56;5062381;28;41971;-79
2023/03/08 10:19:33;;;;;;;11.33;7.50;;;;;;;5.14;77.25;96898.94;5092887;28;42262;-78
2023/03/08 10:22:08;;;;;;;11.17;7.37;;;;;;;5.13;77.40;96892.00;5092471;28;38982;-77
2023/03/08 10:24:43;;;;;;;11.83;7.33;;;;;;;5.18;77.50;96887.28;5092406;28;42305;-78
2023/03/08 10:27:19;;;;;;;10.77;7.43;;;;;;;5.23;77.21;96877.28;5072422;28;43392;-81
2023/03/08 10:29:52;;;;;;;11.07;8.13;;;;;;;4.97;77.10;96825.84;5071864;28;43223;-78
2023/03/08 10:32:20;;;;;;;9.17;7.40;;;;;;;5.36;76.63;96883.31;5083447;28;40677;-79
2023/03/08 10:34:48;;;;;;;10.70;8.00;;;;;;;5.37;76.51;96874.47;5092095;28;40796;-77
2023/03/08 10:37:16;;;;;;;11.57;8.07;;;;;;;5.36;76.05;96858.84;5071938;28;43516;-82
2023/03/08 10:39:51;;;;;;;9.63;7.00;;;;;;;5.47;76.25;96868.53;5055333;28;41302;-78
2023/03/08 10:42:24;;;;;;;14.53;9.00;;;;;;;5.47;76.48;96863.28;5080251;28;40233;-80
2023/03/08 10:44:58;;;;;;;11.87;9.13;;;;;;;5.47;76.42;96853.63;5093474;28;41687;-78
2023/03/08 10:47:29;;;;;;;11.67;9.50;;;;;;;5.53;76.59;96847.94;5092087;28;41367;-78
2023/03/08 10:50:12;;;;;;;18.73;10.00;;;;;;;5.61;76.28;96853.47;5092509;28;41746;-80
2023/03/08 10:52:41;;;;;;;11.60;8.37;;;;;;;5.55;76.33;96846.06;5091779;28;41291;-79
2023/03/08 10:55:12;;;;;;;10.90;8.70;;;;;;;5.62;76.28;96843.78;5075095;28;41830;-79
2023/03/08 10:57:48;;;;;;;13.63;9.93;;;;;;;5.56;76.57;96847.72;5089523;28;43785;-80
2023/03/08 11:00:30;;;;;;;16.00;9.60;;;;;;;5.46;77.23;96835.38;5090765;28;42158;-80
2023/03/08 11:03:19;;;;;;;15.40;9.90;;;;;;;5.38;77.58;96834.16;5122661;27;40052;-80
2023/03/08 11:05:56;;;;;;;15.37;9.20;;;;;;;5.32;77.62;96824.09;5091142;28;42573;-79
2023/03/08 11:08:27;;;;;;;16.83;9.80;;;;;;;5.34;78.07;96827.47;5091303;28;41558;-82
2023/03/08 11:11:03;;;;;;;13.13;8.80;;;;;;;5.29;78.18;96824.34;5075696;28;41123;-79
2023/03/08 11:13:35;;;;;;;14.87;10.07;;;;;;;5.30;78.78;96826.03;5090829;28;40117;-78
2023/03/08 11:16:16;;;;;;;11.83;9.00;;;;;;;5.31;78.68;96825.09;5091755;28;43462;-77
2023/03/08 11:18:54;;;;;;;12.27;9.10;;;;;;;5.34;78.73;96816.97;5070690;28;42930;-78
2023/03/08 11:21:31;;;;;;;19.67;10.77;;;;;;;5.40;78.75;96820.94;5056302;28;41888;-78
2023/03/08 11:24:17;;;;;;;13.47;8.63;;;;;;;5.12;78.91;96764.41;5074379;28;40018;-77
2023/03/08 11:26:52;;;;;;;13.80;8.73;;;;;;;5.53;79.08;96810.34;5091139;28;42826;-76
2023/03/08 11:29:35;;;;;;;17.47;9.77;;;;;;;5.58;79.13;96808.22;5091495;28;44223;-80
2023/03/08 11:32:14;;;;;;;13.80;9.83;;;;;;;5.63;78.99;96800.84;5091435;28;41238;-78
2023/03/08 11:34:59;;;;;;;13.60;9.37;;;;;;;5.63;78.92;96795.59;5091497;28;40194;-77
2023/03/08 11:37:37;;;;;;;15.90;9.50;;;;;;;5.66;79.54;96784.84;5090962;28;41254;-76
2023/03/08 11:40:19;;;;;;;15.63;11.00;;;;;;;5.69;79.76;96766.22;5092212;28;43550;-77
2023/03/08 11:43:00;;;;;;;13.97;9.67;;;;;;;5.73;80.38;96760.63;5090648;28;41297;-79
2023/03/08 11:45:34;;;;;;;11.97;8.60;;;;;;;5.78;80.64;96755.88;5074569;28;39015;-79
2023/03/08 11:48:31;;;;;;;13.07;9.70;;;;;;;5.81;79.94;96746.91;5090588;28;42011;-77
2023/03/08 11:51:06;;;;;;;13.43;9.97;;;;;;;5.75;80.45;96732.47;5074880;28;41759;-78
2023/03/08 11:53:47;;;;;;;17.10;10.47;;;;;;;5.77;80.88;96724.47;5053431;28;42174;-79